createdAt,value
2019-04-09T00:01:06.594Z,11.88
2019-04-09T00:03:32.379Z,11.40
2019-04-09T00:05:58.510Z,11.33
2019-04-09T00:08:24.290Z,11.80
2019-04-09T00:10:51.052Z,11.80
2019-04-09T00:13:19.104Z,11.80
2019-04-09T00:15:45.727Z,12.17
2019-04-09T00:18:14.332Z,10.77
2019-04-09T00:20:39.419Z,12.37
2019-04-09T00:23:05.987Z,12.00
2019-04-09T00:25:32.704Z,12.87
2019-04-09T00:27:59.286Z,12.23
2019-04-09T00:30:25.154Z,11.20
2019-04-09T00:32:50.951Z,12.47
2019-04-09T00:35:16.902Z,12.30
2019-04-09T00:37:42.737Z,12.30
2019-04-09T00:40:08.526Z,12.77
2019-04-09T00:42:34.318Z,12.50
2019-04-09T00:45:00.099Z,12.07
2019-04-09T00:47:26.375Z,12.97
2019-04-09T00:49:52.280Z,13.10
2019-04-09T00:52:18.140Z,14.27
2019-04-09T00:54:43.952Z,13.20
2019-04-09T00:57:10.817Z,12.23
2019-04-09T00:59:37.836Z,13.13
2019-04-09T01:02:03.923Z,13.90
2019-04-09T01:04:30.178Z,13.55
2019-04-09T01:06:56.258Z,13.60
2019-04-09T01:09:22.970Z,12.97
2019-04-09T01:11:49.859Z,14.30
2019-04-09T01:14:15.821Z,14.68
2019-04-09T01:16:42.389Z,13.23
2019-04-09T01:19:16.187Z,13.13
2019-04-09T01:21:35.902Z,14.25
2019-04-09T01:24:03.162Z,13.38
2019-04-09T01:26:30.937Z,13.25
2019-04-09T01:28:59.719Z,13.98
2019-04-09T01:31:39.327Z,14.60
2019-04-09T01:34:07.016Z,15.50
2019-04-09T01:36:50.096Z,14.90
2019-04-09T01:39:23.659Z,16.15
2019-04-09T01:42:00.305Z,16.75
2019-04-09T01:44:37.117Z,17.12
2019-04-09T01:47:04.810Z,17.15
2019-04-09T01:49:38.132Z,18.32
2019-04-09T01:52:22.314Z,18.70
2019-04-09T01:54:50.455Z,18.85
2019-04-09T01:57:26.404Z,19.02
2019-04-09T01:59:51.265Z,18.80
2019-04-09T02:02:35.725Z,19.95
2019-04-09T02:05:03.515Z,20.20
2019-04-09T02:07:34.874Z,20.65
2019-04-09T02:10:11.096Z,20.70
2019-04-09T02:12:41.309Z,22.13
2019-04-09T02:15:25.324Z,22.27
2019-04-09T02:18:05.225Z,23.07
2019-04-09T02:20:32.997Z,22.13
2019-04-09T02:23:12.213Z,23.98
2019-04-09T02:25:43.443Z,22.93
2019-04-09T02:28:26.003Z,22.80
2019-04-09T02:31:10.227Z,25.43
2019-04-09T02:33:43.554Z,26.55
2019-04-09T02:36:17.825Z,25.80
2019-04-09T02:39:03.007Z,26.05
2019-04-09T02:41:47.966Z,27.30
2019-04-09T02:44:25.416Z,26.80
2019-04-09T02:47:05.038Z,28.75
2019-04-09T02:49:33.123Z,27.77
2019-04-09T02:52:13.516Z,29.23
2019-04-09T02:54:42.036Z,29.52
2019-04-09T02:57:26.130Z,29.75
2019-04-09T03:00:09.619Z,30.15
2019-04-09T03:02:55.030Z,28.70
2019-04-09T03:05:39.275Z,30.85
2019-04-09T03:08:23.408Z,29.95
2019-04-09T03:10:59.972Z,31.73
2019-04-09T03:13:44.197Z,31.20
2019-04-09T03:16:11.892Z,32.75
2019-04-09T03:18:42.421Z,33.98
2019-04-09T03:21:13.258Z,34.63
2019-04-09T03:23:41.158Z,35.83
2019-04-09T03:26:09.192Z,36.93
2019-04-09T03:28:37.246Z,36.80
2019-04-09T03:31:17.954Z,36.93
2019-04-09T03:33:46.027Z,37.98
2019-04-09T03:36:16.864Z,37.28
2019-04-09T03:39:00.768Z,37.28
2019-04-09T03:41:37.321Z,37.48
2019-04-09T03:44:05.013Z,39.65
2019-04-09T03:46:38.500Z,41.48
2019-04-09T03:49:09.056Z,39.95
2019-04-09T03:51:39.722Z,40.95
2019-04-09T03:54:08.266Z,39.80
2019-04-09T03:56:36.472Z,39.80
2019-04-09T03:59:18.871Z,40.98
2019-04-09T04:01:55.461Z,39.05
2019-04-09T04:04:28.676Z,41.15
2019-04-09T04:06:59.108Z,40.78
2019-04-09T04:09:43.493Z,42.53
2019-04-09T04:12:16.991Z,39.70
2019-04-09T04:14:45.251Z,41.45
2019-04-09T04:17:27.830Z,39.80
2019-04-09T04:19:58.150Z,40.45
2019-04-09T04:22:35.592Z,40.20
2019-04-09T04:25:12.310Z,39.35
2019-04-09T04:27:48.997Z,39.08
2019-04-09T04:30:34.329Z,37.65
2019-04-09T04:33:04.737Z,36.23
2019-04-09T04:35:32.809Z,38.20
2019-04-09T04:38:03.151Z,33.28
2019-04-09T04:40:49.660Z,34.70
2019-04-09T04:43:21.049Z,34.85
2019-04-09T04:46:05.136Z,36.70
2019-04-09T04:48:32.853Z,35.00
2019-04-09T04:51:06.344Z,33.75
2019-04-09T04:53:46.768Z,37.38
2019-04-09T04:56:17.366Z,36.63
2019-04-09T04:58:53.948Z,37.48
2019-04-09T05:01:38.110Z,33.50
2019-04-09T05:04:22.201Z,33.50
2019-04-09T05:06:53.001Z,28.80
2019-04-09T05:09:26.508Z,25.37
2019-04-09T05:12:10.550Z,26.70
2019-04-09T05:14:41.019Z,25.70
2019-04-09T05:17:25.029Z,29.20
2019-04-09T05:19:55.502Z,25.50
2019-04-09T05:22:26.781Z,25.95
2019-04-09T05:25:07.307Z,25.20
2019-04-09T05:27:35.194Z,25.17
2019-04-09T05:30:02.899Z,24.63
2019-04-09T05:32:47.865Z,23.50
2019-04-09T05:35:27.524Z,21.73
2019-04-09T05:37:55.548Z,23.33
2019-04-09T05:40:41.318Z,22.07
2019-04-09T05:43:21.781Z,21.10
2019-04-09T05:45:49.556Z,21.80
2019-04-09T05:48:33.866Z,20.12
2019-04-09T05:51:10.947Z,18.77
2019-04-09T05:53:51.068Z,20.13
2019-04-09T05:56:35.025Z,19.50
2019-04-09T05:59:10.153Z,17.87
2019-04-09T06:01:54.721Z,17.07
2019-04-09T06:04:38.572Z,15.23
2019-04-09T06:07:15.144Z,15.53
2019-04-09T06:09:41.461Z,14.90
2019-04-09T06:12:07.325Z,14.23
2019-04-09T06:14:33.109Z,13.53
2019-04-09T06:16:59.044Z,13.17
2019-04-09T06:19:25.231Z,13.17
2019-04-09T06:21:51.086Z,12.73
2019-04-09T06:24:16.864Z,12.47
2019-04-09T06:26:42.661Z,12.20
2019-04-09T06:29:16.094Z,12.17
2019-04-09T06:31:36.789Z,10.17
2019-04-09T06:34:17.765Z,10.53
2019-04-09T06:37:02.055Z,11.00
2019-04-09T06:39:47.541Z,10.87
2019-04-09T06:42:27.059Z,9.93
2019-04-09T06:44:57.567Z,10.70
2019-04-09T06:47:42.570Z,10.57
2019-04-09T06:50:13.090Z,9.87
2019-04-09T06:52:40.784Z,10.63
2019-04-09T06:55:24.978Z,9.57
2019-04-09T06:58:08.876Z,9.90
2019-04-09T07:00:40.137Z,9.83
2019-04-09T07:03:07.823Z,10.53
2019-04-09T07:05:38.694Z,9.93
2019-04-09T07:08:06.452Z,9.77
2019-04-09T07:10:36.970Z,9.33
2019-04-09T07:13:13.485Z,8.57
2019-04-09T07:15:41.751Z,8.70
2019-04-09T07:18:21.396Z,7.77
2019-04-09T07:20:55.171Z,8.53
2019-04-09T07:23:32.198Z,7.97
2019-04-09T07:26:14.580Z,8.43
2019-04-09T07:28:44.052Z,8.90
2019-04-09T07:31:16.739Z,7.53
2019-04-09T07:33:47.348Z,8.20
2019-04-09T07:36:14.831Z,8.13
2019-04-09T07:38:59.163Z,8.30
2019-04-09T07:41:33.296Z,7.27
2019-04-09T07:44:13.496Z,8.30
2019-04-09T07:46:52.723Z,7.70
2019-04-09T07:49:20.528Z,8.47
2019-04-09T07:51:58.949Z,7.87
2019-04-09T07:54:26.978Z,7.70
2019-04-09T07:57:07.508Z,8.43
2019-04-09T07:59:39.175Z,8.80
2019-04-09T08:02:06.913Z,8.17
2019-04-09T08:04:44.735Z,7.60
2019-04-09T08:07:12.989Z,7.60
2019-04-09T08:09:44.080Z,8.10
2019-04-09T08:12:14.541Z,8.23
2019-04-09T08:14:45.874Z,8.20
2019-04-09T08:17:17.389Z,8.50
2019-04-09T08:20:01.002Z,9.03
2019-04-09T08:22:28.789Z,7.83
2019-04-09T08:25:02.523Z,8.77
2019-04-09T08:27:30.350Z,9.47
2019-04-09T08:30:17.135Z,9.73
2019-04-09T08:32:42.197Z,9.80
2019-04-09T08:35:17.929Z,8.67
2019-04-09T08:37:58.193Z,8.23
2019-04-09T08:40:25.759Z,7.40
2019-04-09T08:43:12.003Z,8.10
2019-04-09T08:45:40.877Z,7.80
2019-04-09T08:48:12.539Z,7.63
2019-04-09T08:50:54.761Z,8.20
2019-04-09T08:53:27.184Z,8.00
2019-04-09T08:55:57.483Z,7.90
2019-04-09T08:58:36.898Z,7.73
2019-04-09T09:01:35.430Z,7.57
2019-04-09T09:03:51.507Z,8.43
2019-04-09T09:06:13.329Z,7.70
2019-04-09T09:08:58.219Z,7.83
2019-04-09T09:11:29.368Z,7.77
2019-04-09T09:13:54.505Z,8.03
2019-04-09T09:16:36.881Z,7.67
2019-04-09T09:19:20.434Z,7.97
2019-04-09T09:22:06.055Z,8.40
2019-04-09T09:24:53.803Z,8.80
2019-04-09T09:27:28.945Z,8.27
2019-04-09T09:30:06.148Z,8.67
2019-04-09T09:32:34.855Z,9.20
2019-04-09T09:35:15.965Z,9.07
2019-04-09T09:37:59.855Z,9.07
2019-04-09T09:40:33.588Z,9.77
2019-04-09T09:43:03.827Z,9.80
2019-04-09T09:45:40.335Z,9.20
2019-04-09T09:48:09.103Z,8.80
2019-04-09T09:50:39.007Z,9.70
2019-04-09T09:53:25.539Z,10.80
2019-04-09T09:55:59.152Z,9.43
2019-04-09T09:58:29.021Z,9.77
2019-04-09T10:01:11.349Z,10.17
2019-04-09T10:03:40.166Z,10.87
2019-04-09T10:06:14.718Z,14.83
2019-04-09T10:08:56.245Z,9.60
2019-04-09T10:11:32.436Z,9.37
2019-04-09T10:14:02.034Z,9.80
2019-04-09T10:16:49.085Z,9.57
2019-04-09T10:19:30.013Z,9.77
2019-04-09T10:22:03.453Z,9.53
2019-04-09T10:24:35.585Z,8.57
2019-04-09T10:27:14.157Z,9.20
2019-04-09T10:29:40.133Z,10.33
2019-04-09T10:32:10.921Z,9.03
2019-04-09T10:34:57.860Z,8.60
2019-04-09T10:37:37.081Z,8.70
2019-04-09T10:40:13.809Z,8.60
2019-04-09T10:42:50.499Z,7.80
2019-04-09T10:45:24.090Z,7.53
2019-04-09T10:47:54.037Z,7.90
2019-04-09T10:50:30.635Z,9.50
2019-04-09T10:53:00.779Z,8.70
2019-04-09T10:55:28.475Z,8.33
2019-04-09T10:58:01.733Z,8.87
2019-04-09T11:00:32.533Z,8.00
2019-04-09T11:03:02.216Z,8.63
2019-04-09T11:05:38.815Z,8.23
2019-04-09T11:08:08.434Z,8.20
2019-04-09T11:10:52.724Z,8.37
2019-04-09T11:13:23.533Z,8.20
2019-04-09T11:15:55.350Z,8.70
2019-04-09T11:18:27.584Z,8.20
2019-04-09T11:21:12.243Z,8.77
2019-04-09T11:23:48.819Z,8.67
2019-04-09T11:26:34.738Z,8.20
2019-04-09T11:29:05.070Z,6.87
2019-04-09T11:31:44.445Z,6.87
2019-04-09T11:34:11.380Z,6.60
2019-04-09T11:36:41.611Z,6.80
2019-04-09T11:39:26.002Z,6.60
2019-04-09T11:41:53.663Z,7.30
2019-04-09T11:44:21.376Z,6.93
2019-04-09T11:47:06.434Z,8.77
2019-04-09T11:49:44.828Z,7.37
2019-04-09T11:52:30.555Z,7.23
2019-04-09T11:55:00.958Z,7.60
2019-04-09T11:57:41.460Z,6.83
2019-04-09T12:00:26.215Z,7.00
2019-04-09T12:03:10.686Z,6.63
2019-04-09T12:05:50.688Z,7.37
2019-04-09T12:08:22.418Z,6.70
2019-04-09T12:10:50.685Z,6.57
2019-04-09T12:13:24.487Z,6.87
2019-04-09T12:16:04.876Z,6.07
2019-04-09T12:18:33.655Z,6.70
2019-04-09T12:21:04.778Z,6.73
2019-04-09T12:23:35.027Z,6.13
2019-04-09T12:26:08.608Z,6.17
2019-04-09T12:29:06.090Z,6.07
2019-04-09T12:31:23.960Z,6.67
2019-04-09T12:33:54.685Z,6.93
2019-04-09T12:36:35.134Z,6.30
2019-04-09T12:39:18.029Z,5.80
2019-04-09T12:41:51.991Z,6.00
2019-04-09T12:44:26.191Z,5.30
2019-04-09T12:46:53.901Z,5.47
2019-04-09T12:49:37.990Z,5.00
2019-04-09T12:52:05.799Z,3.10
2019-04-09T12:54:49.777Z,3.53
2019-04-09T12:57:20.342Z,3.37
2019-04-09T12:59:56.634Z,3.27
2019-04-09T13:02:34.977Z,3.57
2019-04-09T13:05:02.542Z,4.03
2019-04-09T13:07:36.088Z,3.17
2019-04-09T13:10:15.725Z,2.83
2019-04-09T13:12:53.233Z,3.67
2019-04-09T13:15:21.978Z,3.73
2019-04-09T13:17:52.282Z,3.20
2019-04-09T13:20:22.487Z,2.43
2019-04-09T13:22:58.981Z,2.13
2019-04-09T13:25:41.386Z,2.43
2019-04-09T13:28:10.108Z,2.60
2019-04-09T13:30:37.916Z,2.60
2019-04-09T13:33:11.128Z,1.97
2019-04-09T13:35:55.261Z,2.10
2019-04-09T13:38:26.949Z,2.30
2019-04-09T13:40:57.890Z,2.10
2019-04-09T13:43:25.817Z,2.20
2019-04-09T13:45:53.519Z,2.10
2019-04-09T13:48:27.066Z,1.97
2019-04-09T13:51:09.743Z,1.87
2019-04-09T13:53:35.647Z,2.40
2019-04-09T13:56:02.943Z,1.93
2019-04-09T13:58:28.844Z,1.90
2019-04-09T14:00:54.669Z,1.63
2019-04-09T14:03:31.306Z,1.80
2019-04-09T14:05:52.833Z,2.00
2019-04-09T14:08:19.215Z,1.77
2019-04-09T14:10:52.983Z,1.70
2019-04-09T14:13:14.129Z,1.60
2019-04-09T14:15:40.693Z,28.50
2019-04-09T14:18:06.604Z,16.67
2019-04-09T14:20:32.398Z,3.60
2019-04-09T14:22:58.196Z,2.17
2019-04-09T14:25:23.999Z,1.70
2019-04-09T14:27:49.812Z,2.20
2019-04-09T14:30:15.977Z,2.03
2019-04-09T14:32:41.896Z,3.23
2019-04-09T14:35:07.759Z,2.00
2019-04-09T14:37:33.490Z,2.13
2019-04-09T14:39:59.456Z,1.80
2019-04-09T14:42:26.264Z,1.70
2019-04-09T14:44:52.337Z,1.57
2019-04-09T14:47:18.299Z,1.70
2019-04-09T14:49:45.135Z,1.70
2019-04-09T14:52:12.040Z,2.10
2019-04-09T14:54:37.903Z,1.63
2019-04-09T14:57:04.731Z,1.73
2019-04-09T14:59:30.605Z,1.60
2019-04-09T15:01:57.293Z,2.00
2019-04-09T15:04:23.701Z,1.57
2019-04-09T15:06:51.265Z,1.77
2019-04-09T15:09:17.175Z,1.90
2019-04-09T15:11:44.006Z,1.70
2019-04-09T15:14:09.943Z,1.60
2019-04-09T15:16:36.588Z,1.50
2019-04-09T15:19:02.953Z,1.73
2019-04-09T15:21:33.549Z,1.80
2019-04-09T15:23:59.339Z,3.90
2019-04-09T15:26:25.929Z,1.40
2019-04-09T15:28:51.877Z,1.67
2019-04-09T15:31:18.506Z,1.63
2019-04-09T15:33:45.244Z,1.50
2019-04-09T15:36:11.538Z,1.50
2019-04-09T15:38:37.405Z,1.70
2019-04-09T15:41:03.204Z,1.60
2019-04-09T15:43:29.876Z,1.23
2019-04-09T15:45:55.864Z,1.80
2019-04-09T15:48:22.776Z,1.90
2019-04-09T15:50:48.670Z,3.10
2019-04-09T15:53:27.618Z,1.60
2019-04-09T15:55:42.165Z,1.63
2019-04-09T15:58:08.171Z,1.80
2019-04-09T16:00:34.042Z,1.50
2019-04-09T16:02:59.842Z,1.50
2019-04-09T16:05:26.626Z,2.23
2019-04-09T16:07:55.480Z,1.90
2019-04-09T16:10:23.192Z,1.67
2019-04-09T16:12:49.531Z,1.53
2019-04-09T16:15:15.384Z,2.00
2019-04-09T16:17:41.785Z,2.00
2019-04-09T16:20:07.771Z,1.70
2019-04-09T16:22:34.588Z,1.70
2019-04-09T16:25:00.387Z,1.57
2019-04-09T16:27:26.173Z,1.53
2019-04-09T16:29:52.688Z,2.07
2019-04-09T16:32:19.581Z,2.00
2019-04-09T16:34:45.612Z,1.57
2019-04-09T16:37:16.021Z,1.50
2019-04-09T16:39:40.105Z,1.50
2019-04-09T16:42:06.130Z,1.80
2019-04-09T16:44:32.012Z,1.50
2019-04-09T16:46:57.800Z,1.50
2019-04-09T16:49:23.623Z,2.87
2019-04-09T16:51:49.427Z,1.80
2019-04-09T16:54:15.238Z,1.60
2019-04-09T16:56:41.017Z,1.70
2019-04-09T16:59:07.981Z,1.40
2019-04-09T17:01:33.979Z,1.73
2019-04-09T17:04:11.375Z,1.87
2019-04-09T17:06:27.516Z,2.13
2019-04-09T17:08:53.904Z,1.83
2019-04-09T17:11:19.880Z,1.60
2019-04-09T17:13:46.852Z,1.80
2019-04-09T17:16:12.713Z,2.43
2019-04-09T17:18:38.516Z,3.60
2019-04-09T17:21:05.155Z,1.87
2019-04-09T17:23:32.249Z,2.27
2019-04-09T17:25:58.583Z,2.13
2019-04-09T17:28:25.836Z,1.93
2019-04-09T17:30:52.423Z,2.13
2019-04-09T17:33:19.027Z,2.47
2019-04-09T17:35:44.871Z,2.30
2019-04-09T17:38:11.434Z,2.80
2019-04-09T17:40:37.370Z,2.53
2019-04-09T17:43:03.828Z,2.13
2019-04-09T17:45:31.161Z,1.80
2019-04-09T17:47:57.031Z,1.90
2019-04-09T17:50:26.251Z,4.97
2019-04-09T17:52:52.076Z,2.30
2019-04-09T17:55:19.017Z,3.40
2019-04-09T17:57:44.869Z,1.90
2019-04-09T18:00:13.865Z,1.67
2019-04-09T18:02:40.545Z,3.00
2019-04-09T18:05:06.546Z,2.30
2019-04-09T18:07:32.334Z,2.77
2019-04-09T18:09:58.123Z,1.87
2019-04-09T18:12:24.491Z,3.30
2019-04-09T18:14:51.395Z,2.10
2019-04-09T18:17:17.520Z,3.77
2019-04-09T18:19:43.551Z,3.80
2019-04-09T18:22:09.569Z,3.40
2019-04-09T18:24:35.523Z,3.80
2019-04-09T18:27:01.594Z,3.30
2019-04-09T18:29:27.507Z,2.90
2019-04-09T18:31:53.306Z,2.60
2019-04-09T18:34:19.134Z,2.60
2019-04-09T18:36:45.085Z,2.60
2019-04-09T18:39:12.747Z,2.20
2019-04-09T18:41:38.804Z,2.17
2019-04-09T18:44:04.673Z,2.60
2019-04-09T18:46:30.596Z,2.73
2019-04-09T18:48:56.985Z,3.40
2019-04-09T18:51:25.956Z,4.60
2019-04-09T18:53:51.382Z,3.08
2019-04-09T18:56:17.282Z,3.30
2019-04-09T18:58:43.272Z,2.90
2019-04-09T19:01:09.306Z,2.97
2019-04-09T19:03:36.051Z,2.60
2019-04-09T19:06:03.029Z,2.10
2019-04-09T19:08:28.972Z,1.90
2019-04-09T19:10:55.056Z,2.07
2019-04-09T19:13:21.058Z,1.85
2019-04-09T19:15:46.867Z,1.80
2019-04-09T19:18:12.887Z,2.00
2019-04-09T19:20:38.695Z,1.62
2019-04-09T19:23:04.481Z,1.83
2019-04-09T19:25:31.068Z,2.20
2019-04-09T19:27:57.793Z,2.15
2019-04-09T19:30:24.762Z,2.45
2019-04-09T19:32:51.600Z,2.08
2019-04-09T19:35:23.807Z,2.15
2019-04-09T19:37:45.197Z,2.10
2019-04-09T19:40:22.395Z,2.20
2019-04-09T19:42:48.766Z,2.33
2019-04-09T19:45:15.256Z,2.72
2019-04-09T19:47:41.745Z,2.85
2019-04-09T19:50:08.563Z,2.50
2019-04-09T19:52:35.309Z,2.55
2019-04-09T19:55:02.823Z,2.50
2019-04-09T19:57:28.667Z,2.83
2019-04-09T19:59:54.980Z,3.40
2019-04-09T20:02:20.895Z,2.30
2019-04-09T20:04:47.544Z,2.70
2019-04-09T20:07:14.245Z,2.83
2019-04-09T20:09:40.153Z,2.72
2019-04-09T20:12:07.669Z,2.27
2019-04-09T20:14:36.770Z,2.37
2019-04-09T20:17:04.520Z,1.80
2019-04-09T20:19:31.197Z,2.10
2019-04-09T20:21:57.049Z,2.35
2019-04-09T20:24:22.888Z,2.17
2019-04-09T20:26:48.706Z,2.40
2019-04-09T20:29:15.121Z,2.50
2019-04-09T20:31:41.202Z,3.12
2019-04-09T20:34:08.141Z,2.33
2019-04-09T20:36:33.999Z,2.12
2019-04-09T20:38:59.823Z,2.53
2019-04-09T20:41:25.897Z,3.07
2019-04-09T20:43:51.775Z,3.27
2019-04-09T20:46:17.845Z,2.90
2019-04-09T20:48:43.825Z,2.95
2019-04-09T20:51:13.223Z,3.35
2019-04-09T20:53:40.383Z,2.17
2019-04-09T20:56:06.759Z,2.15
2019-04-09T20:58:33.009Z,2.00
2019-04-09T21:01:09.904Z,2.12
2019-04-09T21:03:50.592Z,2.30
2019-04-09T21:06:08.581Z,2.10
2019-04-09T21:08:35.620Z,2.22
2019-04-09T21:11:01.918Z,2.10
2019-04-09T21:13:29.026Z,2.00
2019-04-09T21:15:55.778Z,1.80
2019-04-09T21:18:21.653Z,2.02
2019-04-09T21:20:47.474Z,2.03
2019-04-09T21:23:13.259Z,2.03
2019-04-09T21:25:39.073Z,1.93
2019-04-09T21:28:05.501Z,2.00
2019-04-09T21:30:32.383Z,2.10
2019-04-09T21:32:59.228Z,2.75
2019-04-09T21:35:25.604Z,2.45
2019-04-09T21:37:52.563Z,2.25
2019-04-09T21:40:21.929Z,2.08
2019-04-09T21:42:46.916Z,2.20
2019-04-09T21:45:13.520Z,2.02
2019-04-09T21:47:39.388Z,1.87
2019-04-09T21:50:05.294Z,2.30
2019-04-09T21:52:31.079Z,2.37
2019-04-09T21:54:57.983Z,1.90
2019-04-09T21:57:23.865Z,2.02
2019-04-09T21:59:49.659Z,1.90
2019-04-09T22:02:15.852Z,2.00
2019-04-09T22:04:41.645Z,2.08
2019-04-09T22:07:08.226Z,2.47
2019-04-09T22:09:34.528Z,2.55
2019-04-09T22:12:00.895Z,2.47
2019-04-09T22:14:26.684Z,2.40
2019-04-09T22:16:52.479Z,2.27
2019-04-09T22:19:18.692Z,2.33
2019-04-09T22:21:44.889Z,1.70
2019-04-09T22:24:11.732Z,2.30
2019-04-09T22:26:37.956Z,2.05
2019-04-09T22:29:03.804Z,2.10
2019-04-09T22:31:30.355Z,2.17
2019-04-09T22:33:57.457Z,2.20
2019-04-09T22:36:31.940Z,2.13
2019-04-09T22:38:51.578Z,2.00
2019-04-09T22:41:17.506Z,2.22
2019-04-09T22:43:43.236Z,2.57
2019-04-09T22:46:09.731Z,2.20
2019-04-09T22:48:36.195Z,2.20
2019-04-09T22:51:02.284Z,2.37
2019-04-09T22:53:28.326Z,2.30
2019-04-09T22:55:54.486Z,2.05
2019-04-09T22:58:20.477Z,2.27
2019-04-09T23:00:51.261Z,2.65
2019-04-09T23:03:21.439Z,2.25
2019-04-09T23:06:01.691Z,2.42
2019-04-09T23:08:32.021Z,2.12
2019-04-09T23:11:00.664Z,2.27
2019-04-09T23:13:26.913Z,2.30
2019-04-09T23:15:53.809Z,2.12
2019-04-09T23:18:19.669Z,2.08
2019-04-09T23:20:45.610Z,1.87
2019-04-09T23:23:11.886Z,2.53
2019-04-09T23:25:38.931Z,2.08
2019-04-09T23:28:05.236Z,2.45
2019-04-09T23:30:32.154Z,2.20
2019-04-09T23:32:58.353Z,2.02
2019-04-09T23:35:25.256Z,2.50
2019-04-09T23:37:51.054Z,2.52
2019-04-09T23:40:17.291Z,2.33
2019-04-09T23:42:43.458Z,2.60
2019-04-09T23:45:10.317Z,2.40
2019-04-09T23:47:36.118Z,2.42
2019-04-09T23:50:02.832Z,2.60
2019-04-09T23:52:28.614Z,2.77
2019-04-09T23:54:54.420Z,2.53
2019-04-09T23:57:20.316Z,2.97
2019-04-09T23:59:46.347Z,2.70
